createdAt,value
2018-05-07T00:00:28.059Z,1005.21
2018-05-07T00:02:20.918Z,1005.21
2018-05-07T00:03:20.889Z,1005.18
2018-05-07T00:05:13.751Z,1005.20
2018-05-07T00:06:13.791Z,1005.15
2018-05-07T00:08:06.577Z,1005.16
2018-05-07T00:09:06.591Z,1005.15
2018-05-07T00:10:59.420Z,1005.16
2018-05-07T00:11:59.395Z,1005.14
2018-05-07T00:13:52.240Z,1005.16
2018-05-07T00:14:52.224Z,1005.15
2018-05-07T00:16:45.080Z,1005.09
2018-05-07T00:17:45.055Z,1005.09
2018-05-07T00:19:37.906Z,1005.08
2018-05-07T00:20:37.957Z,1005.10
2018-05-07T00:22:30.744Z,1005.07
2018-05-07T00:23:30.716Z,1005.10
2018-05-07T00:25:23.571Z,1005.12
2018-05-07T00:26:23.551Z,1005.13
2018-05-07T00:28:16.416Z,1005.13
2018-05-07T00:29:16.387Z,1005.10
2018-05-07T00:31:09.234Z,1005.03
2018-05-07T00:32:09.213Z,1005.05
2018-05-07T00:34:02.072Z,1005.12
2018-05-07T00:35:02.055Z,1005.09
2018-05-07T00:36:54.900Z,1005.03
2018-05-07T00:37:54.883Z,1005.03
2018-05-07T00:39:47.741Z,1005.04
2018-05-07T00:40:47.714Z,1004.99
2018-05-07T00:42:40.565Z,1004.95
2018-05-07T00:43:40.544Z,1005.00
2018-05-07T00:45:33.406Z,1005.02
2018-05-07T00:46:33.378Z,1004.99
2018-05-07T00:48:26.226Z,1005.02
2018-05-07T00:49:26.206Z,1005.04
2018-05-07T00:51:19.072Z,1005.05
2018-05-07T00:52:19.038Z,1005.03
2018-05-07T00:54:11.889Z,1005.03
2018-05-07T00:55:11.870Z,1005.06
2018-05-07T00:57:04.726Z,1005.06
2018-05-07T00:58:04.699Z,1005.06
2018-05-07T00:59:57.557Z,1005.08
2018-05-07T01:00:57.532Z,1005.11
2018-05-07T01:02:50.402Z,1005.15
2018-05-07T01:03:50.373Z,1005.21
2018-05-07T01:05:43.223Z,1005.20
2018-05-07T01:06:43.205Z,1005.24
2018-05-07T01:08:36.067Z,1005.24
2018-05-07T01:09:36.035Z,1005.26
2018-05-07T01:11:28.887Z,1005.28
2018-05-07T01:12:28.865Z,1005.24
2018-05-07T01:14:21.723Z,1005.25
2018-05-07T01:15:21.695Z,1005.27
2018-05-07T01:17:14.545Z,1005.21
2018-05-07T01:18:14.532Z,1005.22
2018-05-07T01:20:07.384Z,1005.19
2018-05-07T01:21:07.355Z,1005.18
2018-05-07T01:23:00.206Z,1005.18
2018-05-07T01:24:00.185Z,1005.18
2018-05-07T01:25:53.044Z,1005.14
2018-05-07T01:26:53.014Z,1005.17
2018-05-07T01:28:45.862Z,1005.17
2018-05-07T01:29:45.842Z,1005.14
2018-05-07T01:31:38.704Z,1005.14
2018-05-07T01:32:38.677Z,1005.14
2018-05-07T01:34:31.528Z,1005.12
2018-05-07T01:35:31.506Z,1005.16
2018-05-07T01:37:24.362Z,1005.14
2018-05-07T01:38:24.335Z,1005.15
2018-05-07T01:40:17.184Z,1005.15
2018-05-07T01:41:17.165Z,1005.15
2018-05-07T01:43:10.018Z,1005.04
2018-05-07T01:44:09.991Z,1005.14
2018-05-07T01:46:02.845Z,1005.07
2018-05-07T01:47:02.826Z,1005.12
2018-05-07T01:48:55.683Z,1005.08
2018-05-07T01:49:55.664Z,1005.09
2018-05-07T01:51:48.498Z,1005.09
2018-05-07T01:52:48.491Z,1005.09
2018-05-07T01:54:41.343Z,1005.11
2018-05-07T01:55:41.315Z,1005.08
2018-05-07T01:57:34.164Z,1005.06
2018-05-07T01:58:34.144Z,1005.05
2018-05-07T02:00:27.004Z,1005.02
2018-05-07T02:01:26.975Z,1004.98
2018-05-07T02:03:19.826Z,1005.04
2018-05-07T02:04:19.804Z,1004.95
2018-05-07T02:06:12.661Z,1004.94
2018-05-07T02:07:12.634Z,1004.90
2018-05-07T02:09:05.481Z,1004.99
2018-05-07T02:10:05.466Z,1004.91
2018-05-07T02:11:58.319Z,1004.97
2018-05-07T02:12:58.291Z,1004.98
2018-05-07T02:14:51.147Z,1004.95
2018-05-07T02:15:51.121Z,1004.93
2018-05-07T02:17:43.979Z,1005.00
2018-05-07T02:18:43.956Z,1004.96
2018-05-07T02:20:36.807Z,1005.01
2018-05-07T02:21:36.785Z,1004.97
2018-05-07T02:23:29.642Z,1004.93
2018-05-07T02:24:29.621Z,1004.93
2018-05-07T02:26:22.467Z,1004.94
2018-05-07T02:27:22.447Z,1004.93
2018-05-07T02:29:15.307Z,1004.96
2018-05-07T02:30:15.275Z,1004.95
2018-05-07T02:32:08.128Z,1004.97
2018-05-07T02:33:08.109Z,1004.95
2018-05-07T02:35:00.990Z,1004.92
2018-05-07T02:36:00.935Z,1004.88
2018-05-07T02:37:53.784Z,1004.95
2018-05-07T02:38:53.860Z,1004.92
2018-05-07T02:40:46.627Z,1004.91
2018-05-07T02:41:46.598Z,1004.93
2018-05-07T02:43:39.440Z,1004.96
2018-05-07T02:44:39.427Z,1004.93
2018-05-07T02:46:32.285Z,1004.92
2018-05-07T02:47:32.256Z,1004.99
2018-05-07T02:49:25.110Z,1004.91
2018-05-07T02:50:25.091Z,1004.88
2018-05-07T02:52:17.946Z,1004.88
2018-05-07T02:53:17.919Z,1004.85
2018-05-07T02:55:10.770Z,1004.85
2018-05-07T02:56:10.749Z,1004.87
2018-05-07T02:58:03.606Z,1004.90
2018-05-07T02:59:03.579Z,1004.94
2018-05-07T03:00:56.426Z,1004.89
2018-05-07T03:01:56.404Z,1004.86
2018-05-07T03:03:49.262Z,1004.85
2018-05-07T03:04:49.234Z,1004.84
2018-05-07T03:06:42.085Z,1004.82
2018-05-07T03:07:42.063Z,1004.76
2018-05-07T03:09:34.920Z,1004.82
2018-05-07T03:10:34.898Z,1004.77
2018-05-07T03:12:27.742Z,1004.81
2018-05-07T03:13:27.721Z,1004.76
2018-05-07T03:15:20.580Z,1004.83
2018-05-07T03:16:20.555Z,1004.77
2018-05-07T03:18:13.406Z,1004.75
2018-05-07T03:19:13.384Z,1004.77
2018-05-07T03:21:06.238Z,1004.77
2018-05-07T03:22:06.214Z,1004.76
2018-05-07T03:23:59.059Z,1004.75
2018-05-07T03:24:59.037Z,1004.76
2018-05-07T03:26:51.899Z,1004.76
2018-05-07T03:27:51.870Z,1004.77
2018-05-07T03:29:44.718Z,1004.77
2018-05-07T03:30:44.700Z,1004.70
2018-05-07T03:32:37.556Z,1004.71
2018-05-07T03:33:37.527Z,1004.74
2018-05-07T03:35:30.380Z,1004.74
2018-05-07T03:36:30.354Z,1004.68
2018-05-07T03:38:23.213Z,1004.75
2018-05-07T03:39:23.192Z,1004.72
2018-05-07T03:41:16.035Z,1004.74
2018-05-07T03:42:16.014Z,1004.68
2018-05-07T03:44:08.877Z,1004.73
2018-05-07T03:45:08.844Z,1004.70
2018-05-07T03:47:01.706Z,1004.71
2018-05-07T03:48:01.671Z,1004.70
2018-05-07T03:49:54.526Z,1004.74
2018-05-07T03:50:54.498Z,1004.69
2018-05-07T03:52:47.349Z,1004.64
2018-05-07T03:53:47.326Z,1004.69
2018-05-07T03:55:40.185Z,1004.69
2018-05-07T03:56:40.156Z,1004.71
2018-05-07T03:58:33.006Z,1004.70
2018-05-07T03:59:32.984Z,1004.73
2018-05-07T04:01:25.851Z,1004.73
2018-05-07T04:02:25.820Z,1004.70
2018-05-07T04:04:18.670Z,1004.75
2018-05-07T04:05:18.649Z,1004.75
2018-05-07T04:07:11.507Z,1004.73
2018-05-07T04:08:11.485Z,1004.78
2018-05-07T04:10:04.328Z,1004.77
2018-05-07T04:11:04.307Z,1004.77
2018-05-07T04:12:57.167Z,1004.78
2018-05-07T04:13:57.144Z,1004.74
2018-05-07T04:15:49.990Z,1004.76
2018-05-07T04:16:49.968Z,1004.74
2018-05-07T04:18:42.829Z,1004.74
2018-05-07T04:19:42.799Z,1004.78
2018-05-07T04:21:35.654Z,1004.77
2018-05-07T04:22:35.632Z,1004.70
2018-05-07T04:24:28.489Z,1004.72
2018-05-07T04:25:28.464Z,1004.70
2018-05-07T04:27:21.317Z,1004.69
2018-05-07T04:28:21.299Z,1004.71
2018-05-07T04:30:14.156Z,1004.73
2018-05-07T04:31:14.128Z,1004.76
2018-05-07T04:33:06.979Z,1004.73
2018-05-07T04:34:06.961Z,1004.77
2018-05-07T04:35:59.820Z,1004.74
2018-05-07T04:36:59.795Z,1004.74
2018-05-07T04:38:52.650Z,1004.70
2018-05-07T04:39:52.627Z,1004.69
2018-05-07T04:41:45.489Z,1004.68
2018-05-07T04:42:45.464Z,1004.71
2018-05-07T04:44:38.313Z,1004.78
2018-05-07T04:45:38.298Z,1004.77
2018-05-07T04:47:31.168Z,1004.77
2018-05-07T04:48:31.144Z,1004.79
2018-05-07T04:50:24.005Z,1004.75
2018-05-07T04:51:23.985Z,1004.84
2018-05-07T04:53:16.851Z,1004.88
2018-05-07T04:54:16.828Z,1004.89
2018-05-07T04:56:09.683Z,1004.87
2018-05-07T04:57:09.666Z,1004.86
2018-05-07T04:59:02.531Z,1004.86
2018-05-07T05:00:02.504Z,1004.89
2018-05-07T05:01:55.364Z,1004.94
2018-05-07T05:02:55.344Z,1004.89
2018-05-07T05:04:48.212Z,1004.99
2018-05-07T05:05:48.189Z,1004.94
2018-05-07T05:07:41.050Z,1005.01
2018-05-07T05:08:41.035Z,1005.04
2018-05-07T05:10:33.903Z,1005.02
2018-05-07T05:11:33.877Z,1005.11
2018-05-07T05:13:26.743Z,1005.10
2018-05-07T05:14:26.730Z,1005.16
2018-05-07T05:16:19.603Z,1005.10
2018-05-07T05:17:19.580Z,1005.11
2018-05-07T05:19:12.480Z,1005.14
2018-05-07T05:20:12.419Z,1005.13
2018-05-07T05:22:05.295Z,1005.15
2018-05-07T05:23:05.272Z,1005.10
2018-05-07T05:24:58.139Z,1005.13
2018-05-07T05:25:58.121Z,1005.10
2018-05-07T05:27:50.989Z,1005.12
2018-05-07T05:28:50.972Z,1005.13
2018-05-07T05:30:43.838Z,1005.15
2018-05-07T05:31:43.838Z,1005.15
2018-05-07T05:33:36.697Z,1005.16
2018-05-07T05:34:36.676Z,1005.14
2018-05-07T05:36:29.544Z,1005.24
2018-05-07T05:37:29.531Z,1005.21
2018-05-07T05:39:22.404Z,1005.09
2018-05-07T05:40:22.385Z,1005.14
2018-05-07T05:42:15.252Z,1005.11
2018-05-07T05:43:15.236Z,1005.13
2018-05-07T05:45:08.112Z,1005.13
2018-05-07T05:46:08.093Z,1005.08
2018-05-07T05:48:00.960Z,1005.15
2018-05-07T05:49:00.946Z,1005.21
2018-05-07T05:50:53.825Z,1005.20
2018-05-07T05:51:53.803Z,1005.22
2018-05-07T05:53:46.666Z,1005.26
2018-05-07T05:54:46.653Z,1005.27
2018-05-07T05:56:39.529Z,1005.17
2018-05-07T05:57:39.505Z,1005.10
2018-05-07T05:59:32.372Z,1005.19
2018-05-07T06:00:32.357Z,1005.15
2018-05-07T06:02:26.806Z,1005.18
2018-05-07T06:03:25.212Z,1005.17
2018-05-07T06:05:18.082Z,1005.22
2018-05-07T06:06:18.066Z,1005.23
2018-05-07T06:08:10.954Z,1005.21
2018-05-07T06:09:10.923Z,1005.19
2018-05-07T06:11:03.797Z,1005.18
2018-05-07T06:12:03.781Z,1005.33
2018-05-07T06:13:56.660Z,1005.26
2018-05-07T06:14:56.820Z,1005.27
2018-05-07T06:16:49.520Z,1005.25
2018-05-07T06:17:49.491Z,1005.14
2018-05-07T06:19:42.354Z,1005.16
2018-05-07T06:20:42.350Z,1005.29
2018-05-07T06:22:35.226Z,1005.29
2018-05-07T06:23:35.197Z,1005.28
2018-05-07T06:25:28.065Z,1005.42
2018-05-07T06:26:28.052Z,1005.39
2018-05-07T06:28:20.933Z,1005.34
2018-05-07T06:29:20.908Z,1005.37
2018-05-07T06:31:13.785Z,1005.38
2018-05-07T06:32:13.773Z,1005.33
2018-05-07T06:34:06.652Z,1005.28
2018-05-07T06:35:06.626Z,1005.28
2018-05-07T06:36:59.493Z,1005.23
2018-05-07T06:37:59.528Z,1005.21
2018-05-07T06:39:52.364Z,1005.19
2018-05-07T06:40:52.339Z,1005.23
2018-05-07T06:42:45.206Z,1005.17
2018-05-07T06:43:45.196Z,1005.23
2018-05-07T06:45:38.145Z,1005.25
2018-05-07T06:46:38.053Z,1005.24
2018-05-07T06:48:30.924Z,1005.36
2018-05-07T06:49:30.917Z,1005.26
2018-05-07T06:51:23.800Z,1005.22
2018-05-07T06:52:23.778Z,1005.28
2018-05-07T06:54:16.647Z,1005.38
2018-05-07T06:55:16.639Z,1005.33
2018-05-07T06:57:09.518Z,1005.28
2018-05-07T06:58:09.498Z,1005.27
2018-05-07T07:00:02.368Z,1005.24
2018-05-07T07:01:02.364Z,1005.33
2018-05-07T07:02:55.443Z,1005.29
2018-05-07T07:03:55.222Z,1005.23
2018-05-07T07:05:48.093Z,1005.24
2018-05-07T07:06:48.081Z,1005.30
2018-05-07T07:08:41.078Z,1005.28
2018-05-07T07:09:40.945Z,1005.22
2018-05-07T07:11:33.819Z,1005.23
2018-05-07T07:12:33.810Z,1005.26
2018-05-07T07:14:26.697Z,1005.25
2018-05-07T07:15:26.675Z,1005.25
2018-05-07T07:17:19.548Z,1005.26
2018-05-07T07:18:19.539Z,1005.29
2018-05-07T07:20:12.493Z,1005.29
2018-05-07T07:21:12.402Z,1005.26
2018-05-07T07:23:05.276Z,1005.26
2018-05-07T07:24:05.267Z,1005.26
2018-05-07T07:25:58.152Z,1005.24
2018-05-07T07:26:58.130Z,1005.25
2018-05-07T07:28:51.004Z,1005.23
2018-05-07T07:29:50.995Z,1005.20
2018-05-07T07:31:43.882Z,1005.29
2018-05-07T07:32:43.860Z,1005.26
2018-05-07T07:34:36.743Z,1005.28
2018-05-07T07:35:36.728Z,1005.34
2018-05-07T07:37:29.616Z,1005.23
2018-05-07T07:38:29.592Z,1005.31
2018-05-07T07:40:22.538Z,1005.30
2018-05-07T07:41:22.472Z,1005.39
2018-05-07T07:43:15.360Z,1005.26
2018-05-07T07:44:15.338Z,1005.25
2018-05-07T07:46:08.213Z,1005.29
2018-05-07T07:47:08.245Z,1005.31
2018-05-07T07:49:01.097Z,1005.30
2018-05-07T07:50:01.073Z,1005.37
2018-05-07T07:51:53.952Z,1005.32
2018-05-07T07:52:53.946Z,1005.33
2018-05-07T07:54:46.836Z,1005.33
2018-05-07T07:55:46.813Z,1005.32
2018-05-07T07:57:39.690Z,1005.33
2018-05-07T07:58:39.683Z,1005.37
2018-05-07T08:00:32.574Z,1005.32
2018-05-07T08:01:32.551Z,1005.32
2018-05-07T08:03:25.430Z,1005.30
2018-05-07T08:04:25.460Z,1005.30
2018-05-07T08:06:18.314Z,1005.34
2018-05-07T08:07:18.293Z,1005.26
2018-05-07T08:09:11.171Z,1005.34
2018-05-07T08:10:11.164Z,1005.33
2018-05-07T08:12:04.120Z,1005.32
2018-05-07T08:13:04.039Z,1005.30
2018-05-07T08:14:56.922Z,1005.27
2018-05-07T08:15:56.911Z,1005.34
2018-05-07T08:17:49.799Z,1005.31
2018-05-07T08:18:49.780Z,1005.28
2018-05-07T08:20:42.660Z,1005.26
2018-05-07T08:21:42.653Z,1005.29
2018-05-07T08:23:35.550Z,1005.30
2018-05-07T08:24:35.528Z,1005.32
2018-05-07T08:26:28.410Z,1005.32
2018-05-07T08:27:28.403Z,1005.31
2018-05-07T08:29:21.294Z,1005.33
2018-05-07T08:30:21.315Z,1005.33
2018-05-07T08:32:14.157Z,1005.38
2018-05-07T08:33:14.150Z,1005.36
2018-05-07T08:35:07.042Z,1005.37
2018-05-07T08:36:07.023Z,1005.57
2018-05-07T08:37:59.903Z,1006.09
2018-05-07T08:38:59.899Z,1006.57
2018-05-07T08:40:52.796Z,1007.54
2018-05-07T08:41:52.773Z,1007.36
2018-05-07T08:43:45.654Z,1008.36
2018-05-07T08:44:45.652Z,1008.41
2018-05-07T08:46:38.545Z,1008.31
2018-05-07T08:47:38.525Z,1008.50
2018-05-07T08:49:31.410Z,1008.72
2018-05-07T08:50:31.404Z,1009.33
2018-05-07T08:52:24.289Z,1009.69
2018-05-07T08:53:24.280Z,1010.42
2018-05-07T08:55:17.161Z,1010.42
2018-05-07T08:56:17.155Z,1010.57
2018-05-07T08:58:10.044Z,1011.08
2018-05-07T08:59:10.032Z,1011.14
2018-05-07T09:01:02.918Z,1010.80
2018-05-07T09:02:02.928Z,1010.02
2018-05-07T09:03:55.804Z,1012.17
2018-05-07T09:04:55.788Z,1011.24
2018-05-07T09:06:48.670Z,1011.57
2018-05-07T09:07:48.665Z,1011.50
2018-05-07T09:09:41.574Z,1011.99
2018-05-07T09:10:41.547Z,1012.13
2018-05-07T09:12:34.427Z,1012.19
2018-05-07T09:13:34.446Z,1011.80
2018-05-07T09:15:27.320Z,1011.65
2018-05-07T09:16:27.301Z,1011.97
2018-05-07T09:18:20.183Z,1011.81
2018-05-07T09:19:20.178Z,1011.39
2018-05-07T09:21:13.078Z,1012.05
2018-05-07T09:22:13.065Z,1011.13
2018-05-07T09:24:05.946Z,1011.47
2018-05-07T09:25:05.939Z,1011.87
2018-05-07T09:26:58.832Z,1011.93
2018-05-07T09:27:58.816Z,1011.93
2018-05-07T09:29:51.696Z,1012.02
2018-05-07T09:30:51.692Z,1011.18
2018-05-07T09:32:44.585Z,1011.88
2018-05-07T09:33:44.568Z,1011.84
2018-05-07T09:35:38.017Z,1011.32
2018-05-07T09:36:37.453Z,1011.64
2018-05-07T09:38:30.351Z,1011.41
2018-05-07T09:39:30.330Z,1011.17
2018-05-07T09:41:23.213Z,1010.78
2018-05-07T09:42:23.212Z,1010.56
2018-05-07T09:44:16.105Z,1010.96
2018-05-07T09:45:16.090Z,1010.10
2018-05-07T09:47:08.970Z,1009.94
2018-05-07T09:48:08.967Z,1010.01
2018-05-07T09:50:01.860Z,1009.54
2018-05-07T09:51:01.842Z,1009.15
2018-05-07T09:52:54.732Z,1009.23
2018-05-07T09:53:54.722Z,1008.88
2018-05-07T09:55:47.619Z,1008.42
2018-05-07T09:56:47.613Z,1008.16
2018-05-07T09:58:40.485Z,1007.57
2018-05-07T09:59:40.479Z,1007.24
2018-05-07T10:01:33.378Z,1006.79
2018-05-07T10:02:33.492Z,1006.82
2018-05-07T10:04:26.237Z,1006.42
2018-05-07T10:05:26.237Z,1006.19
2018-05-07T10:07:19.127Z,1005.96
2018-05-07T10:08:19.109Z,1005.87
2018-05-07T10:10:12.001Z,1005.49
2018-05-07T10:11:11.995Z,1005.52
2018-05-07T10:13:04.899Z,1005.32
2018-05-07T10:14:04.878Z,1005.22
2018-05-07T10:15:57.758Z,1005.15
2018-05-07T10:16:57.783Z,1005.20
2018-05-07T10:18:50.653Z,1005.06
2018-05-07T10:19:50.635Z,1005.15
2018-05-07T10:21:43.524Z,1005.20
2018-05-07T10:22:43.522Z,1005.10
2018-05-07T10:24:36.410Z,1005.01
2018-05-07T10:25:36.394Z,1004.98
2018-05-07T10:27:29.277Z,1004.99
2018-05-07T10:28:29.272Z,1005.06
2018-05-07T10:30:22.166Z,1005.00
2018-05-07T10:31:22.157Z,1005.02
2018-05-07T10:33:15.033Z,1005.01
2018-05-07T10:34:15.027Z,1005.01
2018-05-07T10:36:07.919Z,1005.15
2018-05-07T10:37:07.905Z,1005.09
2018-05-07T10:39:00.783Z,1005.17
2018-05-07T10:40:00.777Z,1005.25
2018-05-07T10:41:53.672Z,1005.26
2018-05-07T10:42:53.658Z,1005.29
2018-05-07T10:44:46.540Z,1005.38
2018-05-07T10:45:46.535Z,1005.57
2018-05-07T10:47:39.429Z,1005.69
2018-05-07T10:48:39.415Z,1005.61
2018-05-07T10:50:32.293Z,1005.45
2018-05-07T10:51:32.290Z,1005.50
2018-05-07T10:53:25.182Z,1005.60
2018-05-07T10:54:25.166Z,1005.59
2018-05-07T10:56:18.048Z,1005.62
2018-05-07T10:57:18.043Z,1005.61
2018-05-07T10:59:10.946Z,1005.47
2018-05-07T11:00:10.920Z,1005.46
2018-05-07T11:02:03.802Z,1005.41
2018-05-07T11:03:03.797Z,1005.40
2018-05-07T11:04:56.692Z,1005.48
2018-05-07T11:05:56.675Z,1005.52
2018-05-07T11:07:49.558Z,1005.54
2018-05-07T11:08:49.552Z,1005.47
2018-05-07T11:10:42.447Z,1005.38
2018-05-07T11:11:42.432Z,1005.44
2018-05-07T11:13:35.380Z,1005.18
2018-05-07T11:14:35.306Z,1005.05
2018-05-07T11:16:28.196Z,1004.75
2018-05-07T11:17:28.180Z,1004.64
2018-05-07T11:19:21.060Z,1004.40
2018-05-07T11:20:21.056Z,1004.40
2018-05-07T11:22:13.948Z,1004.26
2018-05-07T11:23:13.932Z,1004.47
2018-05-07T11:25:06.817Z,1005.06
2018-05-07T11:26:06.814Z,1005.01
2018-05-07T11:27:59.703Z,1004.94
2018-05-07T11:28:59.684Z,1004.76
2018-05-07T11:30:52.562Z,1004.96
2018-05-07T11:31:52.557Z,1004.79
2018-05-07T11:33:45.452Z,1004.59
2018-05-07T11:34:45.433Z,1004.81
2018-05-07T11:36:38.323Z,1004.51
2018-05-07T11:37:38.312Z,1004.48
2018-05-07T11:39:31.199Z,1004.60
2018-05-07T11:40:31.184Z,1004.70
2018-05-07T11:42:24.061Z,1004.62
2018-05-07T11:43:24.057Z,1004.70
2018-05-07T11:45:16.950Z,1004.60
2018-05-07T11:46:16.932Z,1004.52
2018-05-07T11:48:09.810Z,1004.60
2018-05-07T11:49:09.806Z,1004.55
2018-05-07T11:51:02.696Z,1004.39
2018-05-07T11:52:02.679Z,1004.32
2018-05-07T11:53:55.557Z,1004.32
2018-05-07T11:54:55.552Z,1004.44
2018-05-07T11:56:48.438Z,1004.40
2018-05-07T11:57:48.425Z,1004.37
2018-05-07T11:59:41.301Z,1004.49
2018-05-07T12:00:41.297Z,1004.43
2018-05-07T12:02:34.188Z,1004.23
2018-05-07T12:03:34.166Z,1004.04
2018-05-07T12:05:27.115Z,1003.73
2018-05-07T12:06:27.044Z,1003.79
2018-05-07T12:08:19.930Z,1003.74
2018-05-07T12:09:19.912Z,1003.58
2018-05-07T12:11:12.793Z,1003.40
2018-05-07T12:12:12.788Z,1003.42
2018-05-07T12:14:05.673Z,1003.35
2018-05-07T12:15:05.660Z,1003.52
2018-05-07T12:16:58.542Z,1003.27
2018-05-07T12:17:58.535Z,1003.40
2018-05-07T12:19:51.425Z,1003.34
2018-05-07T12:20:51.408Z,1003.28
2018-05-07T12:22:44.283Z,1003.33
2018-05-07T12:23:44.279Z,1003.33
2018-05-07T12:25:37.236Z,1003.28
2018-05-07T12:26:37.149Z,1003.16
2018-05-07T12:28:30.030Z,1003.18
2018-05-07T12:29:30.023Z,1003.17
2018-05-07T12:31:23.001Z,1003.09
2018-05-07T12:32:22.894Z,1003.06
2018-05-07T12:34:15.772Z,1003.03
2018-05-07T12:35:15.768Z,1002.99
2018-05-07T12:37:08.724Z,1003.01
2018-05-07T12:38:08.641Z,1002.96
2018-05-07T12:40:01.525Z,1002.97
2018-05-07T12:41:01.512Z,1003.02
2018-05-07T12:42:54.399Z,1002.93
2018-05-07T12:43:54.380Z,1002.91
2018-05-07T12:45:47.255Z,1002.82
2018-05-07T12:46:47.268Z,1002.83
2018-05-07T12:48:40.133Z,1002.69
2018-05-07T12:49:40.115Z,1002.81
2018-05-07T12:51:32.995Z,1002.86
2018-05-07T12:52:32.989Z,1002.93
2018-05-07T12:54:25.881Z,1002.76
2018-05-07T12:55:25.862Z,1002.81
2018-05-07T12:57:18.734Z,1002.73
2018-05-07T12:58:18.725Z,1002.74
2018-05-07T13:00:11.617Z,1002.70
2018-05-07T13:01:11.592Z,1002.71
2018-05-07T13:03:04.538Z,1002.54
2018-05-07T13:04:04.461Z,1002.56
2018-05-07T13:05:57.468Z,1002.50
2018-05-07T13:06:57.327Z,1002.44
2018-05-07T13:08:50.275Z,1002.52
2018-05-07T13:09:50.196Z,1002.63
2018-05-07T13:11:43.081Z,1002.37
2018-05-07T13:12:43.064Z,1002.54
2018-05-07T13:14:36.006Z,1002.39
2018-05-07T13:15:35.946Z,1002.35
2018-05-07T13:17:28.816Z,1002.48
2018-05-07T13:18:28.796Z,1002.28
2018-05-07T13:20:21.743Z,1002.39
2018-05-07T13:21:21.666Z,1002.36
2018-05-07T13:23:14.547Z,1002.31
2018-05-07T13:24:14.530Z,1002.35
2018-05-07T13:26:07.404Z,1002.26
2018-05-07T13:27:07.393Z,1002.23
2018-05-07T13:29:00.283Z,1002.15
2018-05-07T13:30:00.263Z,1002.09
2018-05-07T13:31:53.137Z,1002.14
2018-05-07T13:32:53.130Z,1002.14
2018-05-07T13:34:46.016Z,1002.00
2018-05-07T13:35:45.994Z,1002.11
2018-05-07T13:37:38.872Z,1002.00
2018-05-07T13:38:38.860Z,1001.92
2018-05-07T13:40:31.751Z,1001.94
2018-05-07T13:41:31.725Z,1001.89
2018-05-07T13:43:24.598Z,1001.83
2018-05-07T13:44:24.592Z,1001.86
2018-05-07T13:46:17.476Z,1001.78
2018-05-07T13:47:17.454Z,1001.79
2018-05-07T13:49:10.326Z,1001.70
2018-05-07T13:50:10.318Z,1001.75
2018-05-07T13:52:03.217Z,1001.65
2018-05-07T13:53:03.193Z,1001.77
2018-05-07T13:54:56.071Z,1001.81
2018-05-07T13:55:56.057Z,1001.81
2018-05-07T13:57:48.947Z,1001.70
2018-05-07T13:58:48.922Z,1001.76
2018-05-07T14:00:41.795Z,1001.63
2018-05-07T14:01:41.786Z,1001.65
2018-05-07T14:03:34.669Z,1001.54
2018-05-07T14:04:34.649Z,1001.61
2018-05-07T14:06:27.520Z,1001.47
2018-05-07T14:07:27.511Z,1001.42
2018-05-07T14:09:20.389Z,1001.47
2018-05-07T14:10:20.371Z,1001.39
2018-05-07T14:12:13.264Z,1001.38
2018-05-07T14:13:13.233Z,1001.32
2018-05-07T14:15:06.175Z,1001.48
2018-05-07T14:16:06.094Z,1001.40
2018-05-07T14:17:58.977Z,1001.37
2018-05-07T14:18:58.963Z,1001.38
2018-05-07T14:20:51.837Z,1001.33
2018-05-07T14:21:51.830Z,1001.30
2018-05-07T14:23:44.708Z,1001.26
2018-05-07T14:24:44.690Z,1001.25
2018-05-07T14:26:37.568Z,1001.29
2018-05-07T14:27:37.552Z,1001.23
2018-05-07T14:29:30.421Z,1001.18
2018-05-07T14:30:30.412Z,1001.14
2018-05-07T14:32:23.289Z,1001.24
2018-05-07T14:33:23.283Z,1001.16
2018-05-07T14:35:16.143Z,1001.15
2018-05-07T14:36:16.132Z,1001.21
2018-05-07T14:38:09.011Z,1001.09
2018-05-07T14:39:08.993Z,1001.08
2018-05-07T14:41:01.863Z,1001.10
2018-05-07T14:42:01.854Z,1001.14
2018-05-07T14:43:54.730Z,1001.08
2018-05-07T14:44:54.716Z,1001.02
2018-05-07T14:46:47.593Z,1001.11
2018-05-07T14:47:47.572Z,1001.06
2018-05-07T14:49:40.439Z,1001.04
2018-05-07T14:50:40.430Z,1001.05
2018-05-07T14:52:33.381Z,1000.94
2018-05-07T14:53:33.297Z,1000.93
2018-05-07T14:55:26.159Z,1000.91
2018-05-07T14:56:26.152Z,1000.92
2018-05-07T14:58:19.028Z,1000.87
2018-05-07T14:59:19.011Z,1000.79
2018-05-07T15:01:11.921Z,1000.93
2018-05-07T15:02:11.873Z,1000.94
2018-05-07T15:04:04.753Z,1000.84
2018-05-07T15:05:04.738Z,1000.91
2018-05-07T15:06:57.611Z,1000.91
2018-05-07T15:07:57.593Z,1000.88
2018-05-07T15:09:50.535Z,1000.84
2018-05-07T15:10:50.450Z,1000.81
2018-05-07T15:12:43.349Z,1000.75
2018-05-07T15:13:43.405Z,1000.82
2018-05-07T15:15:36.279Z,1000.86
2018-05-07T15:16:36.184Z,1000.89
2018-05-07T15:18:29.130Z,1000.71
2018-05-07T15:19:29.041Z,1000.68
2018-05-07T15:21:21.906Z,1000.64
2018-05-07T15:22:21.888Z,1000.63
2018-05-07T15:24:14.768Z,1000.64
2018-05-07T15:25:14.754Z,1000.60
2018-05-07T15:27:07.625Z,1000.53
2018-05-07T15:28:07.605Z,1000.57
2018-05-07T15:30:00.471Z,1000.58
2018-05-07T15:31:00.461Z,1000.58
2018-05-07T15:32:53.331Z,1000.63
2018-05-07T15:33:53.312Z,1000.55
2018-05-07T15:35:46.186Z,1000.54
2018-05-07T15:36:46.171Z,1000.58
2018-05-07T15:38:39.045Z,1000.51
2018-05-07T15:39:39.025Z,1000.36
2018-05-07T15:41:31.890Z,1000.61
2018-05-07T15:42:31.881Z,1000.49
2018-05-07T15:44:24.752Z,1000.43
2018-05-07T15:45:24.735Z,1000.42
2018-05-07T15:47:17.608Z,1000.37
2018-05-07T15:48:17.586Z,1000.34
2018-05-07T15:50:10.453Z,1000.32
2018-05-07T15:51:10.439Z,1000.35
2018-05-07T15:53:03.309Z,1000.25
2018-05-07T15:54:03.300Z,1000.25
2018-05-07T15:55:56.241Z,1000.19
2018-05-07T15:56:56.147Z,1000.21
2018-05-07T15:58:49.019Z,1000.15
2018-05-07T15:59:49.001Z,1000.17
2018-05-07T16:01:41.868Z,1000.17
2018-05-07T16:02:41.872Z,1000.20
2018-05-07T16:04:34.722Z,1000.14
2018-05-07T16:05:34.704Z,1000.15
2018-05-07T16:07:27.620Z,1000.09
2018-05-07T16:08:27.561Z,1000.08
2018-05-07T16:10:20.428Z,1000.07
2018-05-07T16:11:20.414Z,1000.04
2018-05-07T16:13:13.285Z,1000.02
2018-05-07T16:14:13.284Z,1000.02
2018-05-07T16:16:06.127Z,1000.03
2018-05-07T16:17:06.117Z,1000.11
2018-05-07T16:18:58.993Z,1000.01
2018-05-07T16:19:58.969Z,1000.04
2018-05-07T16:21:51.860Z,1000.00
2018-05-07T16:22:51.828Z,1000.09
2018-05-07T16:24:44.693Z,1000.04
2018-05-07T16:25:44.758Z,1000.03
2018-05-07T16:27:37.565Z,1000.04
2018-05-07T16:28:37.527Z,1000.06
2018-05-07T16:30:30.393Z,1000.07
2018-05-07T16:31:30.378Z,999.98
2018-05-07T16:33:23.256Z,999.96
2018-05-07T16:34:23.241Z,999.96
2018-05-07T16:36:16.101Z,999.99
2018-05-07T16:37:16.090Z,999.97
2018-05-07T16:39:08.963Z,999.96
2018-05-07T16:40:08.940Z,999.95
2018-05-07T16:42:01.806Z,999.96
2018-05-07T16:43:01.793Z,999.96
2018-05-07T16:44:54.668Z,1000.01
2018-05-07T16:45:54.646Z,1000.01
2018-05-07T16:47:47.516Z,999.98
2018-05-07T16:48:47.568Z,1000.00
2018-05-07T16:50:40.362Z,999.98
2018-05-07T16:51:40.349Z,999.93
2018-05-07T16:53:33.220Z,999.98
2018-05-07T16:54:33.205Z,999.95
2018-05-07T16:56:26.064Z,1000.05
2018-05-07T16:57:26.059Z,999.96
2018-05-07T16:59:18.928Z,999.99
2018-05-07T17:00:18.907Z,999.96
2018-05-07T17:02:11.769Z,999.97
2018-05-07T17:03:11.754Z,999.96
2018-05-07T17:05:04.628Z,999.92
2018-05-07T17:06:04.605Z,999.94
2018-05-07T17:07:57.475Z,999.93
2018-05-07T17:08:57.462Z,999.93
2018-05-07T17:10:50.320Z,999.89
2018-05-07T17:11:50.306Z,999.93
2018-05-07T17:13:43.177Z,999.95
2018-05-07T17:14:43.156Z,999.97
2018-05-07T17:16:36.115Z,999.91
2018-05-07T17:17:36.010Z,1000.00
2018-05-07T17:19:28.880Z,999.99
2018-05-07T17:20:28.861Z,999.99
2018-05-07T17:22:21.731Z,1000.00
2018-05-07T17:23:21.711Z,1000.01
2018-05-07T17:25:14.579Z,999.97
2018-05-07T17:26:14.597Z,1000.04